Campanya meteocatpedra

Dades EMA Alfarràs

?
?
Resum diari 22:30 TU
Dades diàries de l'estació meteorològica
Temperatura mitjana 23.2 °C
Temperatura màxima 32.0 °C 16:04 TU
Temperatura mínima 14.3 °C 4:35 TU
Humitat relativa mitjana 53%
Precipitació acumulada 0.0 mm
Ratxa màxima del vent (2 m) 16.9 km/h - 277º 12:41 TU

El tram horari està expressat en Temps Universal (TU). Cal sumar una hora en horari d'hivern i dues en horari d'estiu per passar a l'hora oficial.

Alfarràs

Metadades estació meteorol´gica
Municipi Alfarràs
Comarca Segrià
Altitud 268 m
Data alta 17.09.1997
Estat actual Operativa
Dades de període
Període
TU
TM
°C
TX
°C
TN
°C
HRM
%
PPT
mm
VVM (2 m)
km/h
DVM (2 m)
graus
VVX (2 m)
km/h
00:00 - 00:30 16.0 16.6 15.7 76 0.0 4.0 310 9.4
00:30 - 01:00 16.3 16.4 16.2 75 0.0 2.9 293 6.5
01:00 - 01:30 16.1 16.2 16.1 75 0.0 3.2 295 5.4
01:30 - 02:00 16.1 16.2 15.8 75 0.0 3.2 305 6.5
02:00 - 02:30 15.5 15.8 15.3 78 0.0 3.2 307 6.5
02:30 - 03:00 15.4 15.5 15.0 78 0.0 3.2 315 6.5
03:00 - 03:30 14.7 15.0 14.5 81 0.0 3.2 303 7.2
03:30 - 04:00 14.5 14.7 14.4 82 0.0 3.6 299 8.3
04:00 - 04:30 14.4 14.6 14.3 81 0.0 2.5 272 6.8
04:30 - 05:00 14.6 14.8 14.3 81 0.0 2.5 293 7.2
05:00 - 05:30 15.4 16.1 14.8 78 0.0 2.2 319 9.0
05:30 - 06:00 16.6 17.3 16.1 73 0.0 3.6 341 9.4
06:00 - 06:30 18.1 19.1 17.3 69 0.0 4.3 338 9.7
06:30 - 07:00 20.6 22.0 19.2 62 0.0 2.2 84 6.5
07:00 - 07:30 22.3 22.6 22.0 58 0.0 2.5 148 5.8
07:30 - 08:00 23.2 23.8 22.3 56 0.0 3.2 152 6.1
08:00 - 08:30 24.5 25.2 23.6 53 0.0 2.9 141 6.8
08:30 - 09:00 25.8 26.3 25.2 49 0.0 1.8 148 6.1
09:00 - 09:30 26.7 27.6 25.9 45 0.0 1.1 244 7.6
09:30 - 10:00 26.9 28.0 26.0 39 0.0 3.2 273 10.8
10:00 - 10:30 27.9 28.6 27.3 35 0.0 2.2 249 11.5
10:30 - 11:00 28.4 29.1 27.9 34 0.0 2.2 233 10.4
11:00 - 11:30 28.8 29.1 28.5 33 0.0 2.5 272 13.0
11:30 - 12:00 29.0 29.9 28.5 32 0.0 3.6 280 13.3
12:00 - 12:30 29.7 30.2 29.0 32 0.0 1.8 260 10.8
12:30 - 13:00 29.9 31.0 29.5 31 0.0 2.9 266 16.9
13:00 - 13:30 30.3 31.0 29.9 30 0.0 2.9 267 11.9
13:30 - 14:00 30.6 31.0 30.3 29 0.0 1.8 269 12.2
14:00 - 14:30 30.6 31.2 30.1 30 0.0 1.8 284 9.7
14:30 - 15:00 31.0 31.3 30.6 29 0.0 1.1 241 10.8
15:00 - 15:30 31.5 31.9 30.5 29 0.0 0.7 298 9.0
15:30 - 16:00 31.5 31.8 30.6 29 0.0 0.7 227 9.0
16:00 - 16:30 31.6 32.0 31.1 30 0.0 0.4 283 6.1
16:30 - 17:00 31.7 32.0 31.2 30 0.0 0.7 175 6.8
17:00 - 17:30 31.0 31.5 30.6 32 0.0 1.4 196 10.1
17:30 - 18:00 30.3 31.0 28.9 32 0.0 3.6 185 15.8
18:00 - 18:30 28.3 28.8 27.7 32 0.0 5.0 183 14.4
18:30 - 19:00 26.4 27.6 25.0 39 0.0 1.4 123 5.0
19:00 - 19:30 22.7 24.9 21.4 54 0.0 0.4 85 2.2
19:30 - 20:00 20.9 21.4 20.0 58 0.0 0.4 31 5.4
20:00 - 20:30 19.7 20.1 19.0 62 0.0 0.4 359 2.9
20:30 - 21:00 18.5 19.0 17.7 68 0.0 1.1 344 3.6
21:00 - 21:30 18.3 18.6 17.8 64 0.0 2.2 353 7.6
21:30 - 22:00 18.1 18.3 17.7 63 0.0 3.6 319 9.0
22:00 - 22:30 17.6 17.7 17.3 65 0.0 3.6 320 9.0
22:30 - 23:00 17.4 17.7 17.1 65 0.0 3.2 321 7.9
23:00 - 23:30 (s/d) (s/d) (s/d) (s/d) (s/d) (s/d) (s/d) (s/d)

Les dades en taronja només han passat un control de qualitat automàtic. Resta pendent la seva validació definitiva.